NCAR-RAP Real-Time Weather Data

Output produced by METARs form (08 May 2021  15:52 UTC)
found at http://weather.rap.ucar.edu/surface/
 
KLLJ 081455Z AUTO 19004KT 10SM SCT060 02/M07 A3012 RMK AO2 SLP192 T00171072 51013
KLLJ 081355Z AUTO 16003KT 10SM BKN060 M01/M06 A3012 RMK AO2 SLP190 T10061061
KLLJ 081255Z AUTO 25003KT 10SM BKN060 M01/M06 A3010 RMK AO2 SLP181 T10111056
KLLJ 081155Z AUTO 00000KT 10SM CLR M01/M07 A3008 RMK AO2 SLP171 60000 70001 T10111067 10050 21017 51018
KLLJ 081055Z AUTO 01005KT 10SM CLR 01/M07 A3007 RMK AO2 SLP163 T00111072
KLLJ 080955Z AUTO 35004KT 10SM FEW060 BKN085 01/M02 A3005 RMK AO2 WSHFT 0851 SNB00E34 SLP154 P0000 T00061022
KLLJ 080930Z AUTO 05005KT 5SM -SN BR SCT018 BKN070 OVC080 01/M02 A3004 RMK AO2 WSHFT 0851 SNB00 P0000 T00061017
KLLJ 080921Z AUTO 06004KT 2 1/2SM -SN BR FEW018 BKN025 OVC070 01/M01 A3004 RMK AO2 WSHFT 0851 SNB00 P0000 T00061011
KLLJ 080911Z AUTO 36006KT 7SM -SN FEW028 BKN060 OVC075 01/M01 A3004 RMK AO2 WSHFT 0851 SNB00 P0000 T00061011
KLLJ 080855Z AUTO 32011KT 10SM BKN031 OVC060 02/M01 A3002 RMK AO2 SNB29E47 SLP142 P0000 60000 T00171006 53003
KLLJ 080852Z AUTO 32011KT 9SM BKN031 OVC055 02/M01 A3002 RMK AO2 SNB29E47 P0000
KLLJ 080837Z AUTO 31010G19KT 5SM -SN BR BKN022 BKN044 OVC070 02/00 A3001 RMK AO2 SNB29 P0000 T00170000
KLLJ 080755Z AUTO 14003KT 10SM BKN065 BKN080 02/00 A3000 RMK AO2 SNE0657 SLP138 P0000 T00170000
KLLJ 080655Z AUTO 00000KT 9SM -SN BKN035 OVC050 02/01 A3001 RMK AO2 WSHFT 0623 RAB34E37SNB37 SLP143 P0000 T00220011 401830017
KLLJ 080651Z AUTO 00000KT 6SM -SN BR BKN028 BKN041 OVC050 02/01 A3001 RMK AO2 WSHFT 0623 RAB34E37SNB37 P0000
KLLJ 080643Z AUTO 29011G21KT 5SM -SN BR SCT019 BKN041 BKN050 02/00 A3002 RMK AO2 WSHFT 0623 RAB34E37SNB37 P0000 T00170000
KLLJ 080555Z AUTO 02012G18KT 10SM BKN060 05/M02 A2999 RMK AO2 SLP133 T00501022 10167 20044 51023
KLLJ 080455Z AUTO 36012G23KT 10SM CLR 06/M02 A2998 RMK AO2 SLP128 T00611022
KLLJ 080355Z AUTO 04006KT 10SM CLR 08/M02 A2995 RMK AO2 SLP116 T00781022
KLLJ 080255Z AUTO 29010KT 10SM FEW085 10/M08 A2991 RMK AO2 SLP097 T01001078 53017